createdAt,value
2023-01-19T00:04:09.358Z,13.8
2023-01-19T00:09:09.076Z,14.9
2023-01-19T00:14:06.603Z,10.7
2023-01-19T00:19:06.288Z,11.2
2023-01-19T00:24:05.911Z,11.0
2023-01-19T00:29:05.555Z,11.7
2023-01-19T00:34:05.285Z,11.3
2023-01-19T00:39:04.866Z,9.0
2023-01-19T00:44:04.582Z,11.6
2023-01-19T00:49:04.338Z,9.3
2023-01-19T00:54:03.928Z,9.7
2023-01-19T00:59:03.560Z,8.9
2023-01-19T01:04:03.215Z,7.8
2023-01-19T01:09:02.889Z,9.0
2023-01-19T01:14:02.521Z,8.5
2023-01-19T01:19:02.143Z,8.2
2023-01-19T01:24:01.870Z,6.9
2023-01-19T01:29:01.465Z,8.1
2023-01-19T01:34:03.097Z,8.5
2023-01-19T01:39:00.827Z,7.1
2023-01-19T01:44:00.358Z,8.4
2023-01-19T01:49:00.001Z,7.6
2023-01-19T01:53:59.596Z,7.5
2023-01-19T01:59:01.799Z,9.3
2023-01-19T02:03:58.836Z,8.5
2023-01-19T02:08:58.489Z,9.5
2023-01-19T02:13:58.151Z,8.8
2023-01-19T02:18:59.809Z,9.3
2023-01-19T02:23:57.461Z,9.8
2023-01-19T02:28:57.138Z,8.2
2023-01-19T02:33:56.765Z,7.9
2023-01-19T02:38:56.399Z,6.8
2023-01-19T02:43:58.022Z,7.9
2023-01-19T02:48:55.714Z,8.4
2023-01-19T02:58:54.911Z,7.7
2023-01-19T03:03:54.598Z,7.4
2023-01-19T03:08:54.158Z,7.5
2023-01-19T03:13:53.826Z,6.2
2023-01-19T03:18:53.399Z,8.3
2023-01-19T03:23:52.966Z,6.8
2023-01-19T03:28:52.569Z,6.9
2023-01-19T03:33:52.267Z,5.9
2023-01-19T03:38:51.818Z,7.4
2023-01-19T03:43:53.469Z,7.1
2023-01-19T03:48:51.065Z,9.3
2023-01-19T03:53:53.409Z,6.3
2023-01-19T03:58:50.312Z,6.8
2023-01-19T04:03:51.972Z,7.6
2023-01-19T04:08:49.534Z,6.3
2023-01-19T04:13:49.070Z,5.8
2023-01-19T04:18:48.635Z,5.7
2023-01-19T04:23:48.161Z,7.3
2023-01-19T04:28:47.746Z,5.7
2023-01-19T04:33:47.383Z,6.6
2023-01-19T04:38:46.897Z,6.3
2023-01-19T04:43:46.582Z,6.2
2023-01-19T04:48:46.069Z,4.8
2023-01-19T04:53:45.665Z,5.3
2023-01-19T04:58:45.256Z,5.4
2023-01-19T05:03:44.826Z,5.9
2023-01-19T05:08:45.488Z,6.2
2023-01-19T05:13:44.055Z,6.0
2023-01-19T05:18:43.627Z,6.3
2023-01-19T05:23:43.265Z,5.9
2023-01-19T05:28:44.859Z,5.3
2023-01-19T05:33:42.532Z,5.4
2023-01-19T05:38:42.074Z,7.3
2023-01-19T05:43:41.681Z,6.8
2023-01-19T05:48:41.349Z,10.7
2023-01-19T05:53:40.908Z,8.1
2023-01-19T05:58:40.476Z,8.4
2023-01-19T06:03:40.084Z,9.4
2023-01-19T06:08:41.668Z,9.7
2023-01-19T06:13:41.185Z,10.2
2023-01-19T06:18:38.936Z,10.0
2023-01-19T06:23:38.499Z,8.8
2023-01-19T06:28:38.075Z,10.2
2023-01-19T06:33:40.224Z,11.5
2023-01-19T06:43:36.864Z,9.2
2023-01-19T06:48:36.476Z,11.3
2023-01-19T06:53:36.079Z,10.2
2023-01-19T06:58:35.677Z,9.2
2023-01-19T07:03:35.276Z,11.3
2023-01-19T07:08:34.893Z,9.5
2023-01-19T07:13:34.501Z,9.4
2023-01-19T07:18:34.064Z,10.6
2023-01-19T07:23:33.705Z,10.8
2023-01-19T07:28:33.385Z,10.0
2023-01-19T07:33:32.949Z,13.6
2023-01-19T07:38:32.470Z,15.4
2023-01-19T07:43:32.041Z,15.0
2023-01-19T07:48:31.749Z,13.9
2023-01-19T07:53:31.186Z,19.6
2023-01-19T07:58:30.791Z,18.5
2023-01-19T08:03:30.368Z,15.5
2023-01-19T08:08:29.952Z,10.6
2023-01-19T08:13:31.524Z,8.4
2023-01-19T08:18:29.139Z,8.3
2023-01-19T08:23:28.802Z,7.7
2023-01-19T08:28:28.407Z,9.7
2023-01-19T08:33:28.068Z,10.3
2023-01-19T08:38:27.647Z,9.6
2023-01-19T08:43:29.767Z,9.5
2023-01-19T08:48:26.932Z,11.1
2023-01-19T08:53:26.507Z,10.8
2023-01-19T08:58:26.112Z,12.4
2023-01-19T09:03:25.818Z,17.5
2023-01-19T09:08:25.483Z,15.2
2023-01-19T09:13:25.099Z,15.9
2023-01-19T09:18:24.669Z,19.6
2023-01-19T09:23:24.372Z,19.3
2023-01-19T09:28:26.165Z,15.2
2023-01-19T09:33:23.665Z,14.4
2023-01-19T09:38:23.246Z,13.7
2023-01-19T09:43:22.886Z,13.4
2023-01-19T09:48:22.516Z,16.2
2023-01-19T09:53:22.154Z,15.6
2023-01-19T09:58:21.774Z,14.6
2023-01-19T10:03:21.397Z,13.7
2023-01-19T10:08:21.000Z,15.6
2023-01-19T10:13:20.651Z,18.0
2023-01-19T10:18:20.325Z,12.4
2023-01-19T10:23:22.012Z,11.5
2023-01-19T10:28:19.664Z,10.9
2023-01-19T10:33:19.367Z,10.6
2023-01-19T10:38:19.017Z,11.5
2023-01-19T10:43:18.701Z,12.1
2023-01-19T10:48:18.311Z,12.6
2023-01-19T10:53:18.083Z,11.0
2023-01-19T10:58:18.980Z,10.9
2023-01-19T11:03:17.440Z,10.3
2023-01-19T11:13:18.729Z,12.8
2023-01-19T11:18:16.409Z,11.2
2023-01-19T11:23:16.122Z,23.5
2023-01-19T11:28:15.848Z,13.1
2023-01-19T11:33:15.541Z,12.6
2023-01-19T11:38:15.247Z,10.8
2023-01-19T11:43:14.998Z,12.7
2023-01-19T11:48:14.706Z,24.4
2023-01-19T11:53:14.473Z,23.7
2023-01-19T11:58:16.380Z,23.0
2023-01-19T12:03:14.008Z,16.3
2023-01-19T12:08:13.666Z,11.7
2023-01-19T12:13:13.468Z,10.9
2023-01-19T12:18:13.224Z,10.0
2023-01-19T12:23:12.915Z,8.6
2023-01-19T12:28:12.674Z,7.6
2023-01-19T12:33:12.466Z,8.8
2023-01-19T12:38:12.205Z,8.3
2023-01-19T12:43:12.027Z,9.3
2023-01-19T12:48:11.857Z,7.2
2023-01-19T12:53:14.018Z,8.1
2023-01-19T12:58:11.356Z,6.4
2023-01-19T13:03:11.101Z,5.3
2023-01-19T13:08:10.885Z,4.2
2023-01-19T13:13:10.734Z,6.2
2023-01-19T13:18:10.459Z,5.3
2023-01-19T13:23:14.293Z,5.4
2023-01-19T13:28:10.055Z,5.8
2023-01-19T13:33:09.856Z,4.1
2023-01-19T13:38:09.620Z,4.7
2023-01-19T13:43:09.523Z,4.9
2023-01-19T13:48:09.291Z,4.1
2023-01-19T13:53:09.171Z,3.6
2023-01-19T13:58:09.033Z,2.2
2023-01-19T14:03:08.957Z,3.8
2023-01-19T14:08:08.666Z,3.4
2023-01-19T14:13:08.455Z,4.3
2023-01-19T14:18:08.290Z,2.8
2023-01-19T14:23:08.135Z,2.4
2023-01-19T14:28:07.973Z,3.7
2023-01-19T14:33:07.784Z,4.2
2023-01-19T14:43:07.502Z,2.5
2023-01-19T14:48:07.271Z,1.9
2023-01-19T14:53:07.130Z,3.6
2023-01-19T14:58:06.900Z,2.0
2023-01-19T15:03:06.760Z,2.7
2023-01-19T15:13:06.436Z,3.0
2023-01-19T15:18:06.244Z,3.1
2023-01-19T15:23:08.638Z,2.9
2023-01-19T15:28:05.959Z,2.4
2023-01-19T15:33:05.800Z,3.8
2023-01-19T15:38:05.645Z,3.0
2023-01-19T15:43:05.441Z,4.3
2023-01-19T15:48:05.285Z,5.7
2023-01-19T15:53:05.130Z,5.2
2023-01-19T15:58:04.847Z,6.1
2023-01-19T16:03:04.626Z,4.5
2023-01-19T16:08:06.375Z,3.7
2023-01-19T16:13:04.129Z,4.3
2023-01-19T16:18:06.583Z,4.6
2023-01-19T16:23:14.443Z,3.5
2023-01-19T16:28:05.469Z,4.0
2023-01-19T16:33:03.266Z,4.2
2023-01-19T16:38:03.081Z,3.2
2023-01-19T16:43:02.787Z,4.2
2023-01-19T16:48:02.595Z,3.7
2023-01-19T16:53:04.606Z,5.5
2023-01-19T16:58:02.098Z,5.7
2023-01-19T17:03:01.941Z,5.9
2023-01-19T17:08:01.670Z,5.7
2023-01-19T17:13:01.410Z,6.6
2023-01-19T17:18:01.236Z,8.6
2023-01-19T17:23:00.963Z,11.5
2023-01-19T17:28:00.736Z,11.3
2023-01-19T17:33:00.403Z,9.1
2023-01-19T17:38:00.256Z,8.5
2023-01-19T17:42:59.879Z,8.2
2023-01-19T17:47:59.649Z,9.0
2023-01-19T17:52:59.398Z,8.8
2023-01-19T17:58:01.852Z,12.9
2023-01-19T18:02:58.878Z,12.5
2023-01-19T18:07:58.539Z,18.9
2023-01-19T18:12:58.243Z,20.8
2023-01-19T18:17:57.959Z,15.0
2023-01-19T18:22:57.848Z,17.7
2023-01-19T18:27:57.417Z,22.6
2023-01-19T18:32:57.097Z,23.6
2023-01-19T18:37:57.030Z,16.4
2023-01-19T18:42:56.460Z,16.1
2023-01-19T18:47:56.310Z,15.8
2023-01-19T18:52:57.911Z,17.2
2023-01-19T18:57:55.559Z,15.0
2023-01-19T19:02:55.226Z,16.0
2023-01-19T19:07:54.974Z,18.3
2023-01-19T19:12:54.575Z,16.6
2023-01-19T19:17:54.342Z,14.4
2023-01-19T19:22:53.956Z,17.1
2023-01-19T19:27:53.673Z,16.8
2023-01-19T19:32:55.329Z,27.0
2023-01-19T19:37:53.104Z,22.9
2023-01-19T19:42:52.729Z,16.7
2023-01-19T19:47:52.423Z,38.2
2023-01-19T19:52:52.286Z,32.5
2023-01-19T19:57:51.800Z,29.7
2023-01-19T20:02:51.544Z,32.9
2023-01-19T20:07:51.199Z,31.8
2023-01-19T20:12:50.897Z,32.1
2023-01-19T20:17:50.608Z,29.8
2023-01-19T20:22:50.216Z,30.9
2023-01-19T20:27:49.968Z,28.1
2023-01-19T20:32:49.690Z,25.4
2023-01-19T20:37:49.253Z,23.0
2023-01-19T20:42:48.935Z,19.5
2023-01-19T20:47:48.615Z,20.4
2023-01-19T20:52:48.254Z,16.0
2023-01-19T20:57:47.960Z,17.8
2023-01-19T21:02:47.723Z,10.9
2023-01-19T21:07:47.320Z,9.7
2023-01-19T21:12:46.997Z,10.3
2023-01-19T21:17:48.093Z,12.9
2023-01-19T21:22:46.447Z,13.6
2023-01-19T21:27:46.156Z,12.7
2023-01-19T21:32:45.838Z,12.8
2023-01-19T21:37:47.155Z,18.2
2023-01-19T21:42:45.179Z,16.8
2023-01-19T21:47:44.872Z,16.2
2023-01-19T21:52:44.560Z,11.6
2023-01-19T21:57:46.694Z,15.5
2023-01-19T22:02:49.417Z,18.6
2023-01-19T22:07:43.692Z,24.6
2023-01-19T22:12:45.364Z,19.8
2023-01-19T22:17:44.865Z,17.6
2023-01-19T22:22:42.491Z,18.2
2023-01-19T22:27:42.192Z,36.9
2023-01-19T22:32:41.835Z,25.4
2023-01-19T22:37:41.518Z,34.6
2023-01-19T22:42:41.123Z,47.1
2023-01-19T22:47:40.813Z,33.9
2023-01-19T22:52:42.974Z,20.6
2023-01-19T22:57:40.099Z,12.8
2023-01-19T23:02:40.120Z,11.8
2023-01-19T23:07:39.382Z,12.8
2023-01-19T23:12:39.040Z,8.7
2023-01-19T23:17:38.691Z,6.0
2023-01-19T23:22:38.373Z,5.8
2023-01-19T23:27:38.066Z,5.2
2023-01-19T23:32:37.737Z,5.9
2023-01-19T23:37:37.321Z,7.5
2023-01-19T23:42:37.012Z,6.9
2023-01-19T23:47:39.229Z,10.6
2023-01-19T23:52:36.306Z,11.2
2023-01-19T23:57:35.985Z,9.9
